MDLR/LRM METAR and TAF weather

Enter ICAO airport designator
Station Type Date Time Source
MDLR METAR 2020/04/02 00:00 UTC NOAA

MDLR 020000Z 18006KT 9999 FEW018 24/22 Q1011 NOSIG


Station Type Date Time Source
MDLR Decoded METAR 2020/04/02 00:00 UTC NOAA

La Romana International Airport, Dominican Republic (MDLR) 18-25N 068-57W
Apr 01, 2020 - 08:00 PM EDT / 2020.04.02 0000 UTC
Wind: from the S (180 degrees) at 7 MPH (6 KT):0
Visibility: greater than 7 mile(s):0
Sky conditions: mostly clear
Temperature: 75 F (24 C)
Dew Point: 71 F (22 C)
Relative Humidity: 88%
Pressure (altimeter): 29.85 in. Hg (1011 hPa)
ob: MDLR 020000Z 18006KT 9999 FEW018 24/22 Q1011 NOSIG
cycle: 0

Station Type Date Time Source
MDLR TAF 2020/04/01 18:22 UTC NOAA

TAF MDLR 011600Z 0118/0218 13010KT 9999 SCT022

Example: see airport list